Leaday, Texas
Current Conditions -  °F | °C
As of 7:15 AM on Friday 28 Nov 2014 (Local Time) from KCOM Reporting Station
Clear Clear  
Wind Chill: 40°   Ceiling: Unl
Heat Index: 40°   Visibility: 10mi
Dew Point: 36°   Wind: 3mph
Humidity: 84%   Direction: 210°SSW
Pressure: 30.24"   Gusts: NA
Location:  31.6356°N, 99.5918°W
Report Text: KCOM 281315Z AUTO 21003KT 10SM CLR 05/02 A3024 RMK AO2 T00470022
Loading
Personal Weather Stations






























Interactive Weather Map New forecast layout! Learn more

10-Day Weather Forecast

Advertisements
Track Severe Weather on mobile